• Join FlightAware (Why Join?)
  • Login
  • US Flag 
02:25AM EDT


 

Airport Tracker/Info


-or-


 

Live Flight TrackerFlight Track Log ✈ UPS1216 ✈ 28-Jun-2013 ✈ KRFD - KBWI

Flight Track Log - Related Links

Times and Time Zones

All times are in EDT time to prevent confusion due to time zone crossing. See the UPS1216 flight status page for this flight to view local times or setup timezone preferences in your user account.

Time Position Orientation Groundspeed Altitude Reporting Facility
EDT Latitude Longitude Course Direction KTS MPH feet Rate Location/Type
04:07AM 42.1397 -89.1108 71° East 232 267 3,700  Level Chicago Center
04:08AM 42.1442 -89.0161 86° East 256 295 6,000 2,640 Climbing Chicago Center
04:09AM 42.1489 -88.9086 87° East 283 326 9,100 2,580 Climbing Chicago Center
04:10AM 42.1558 -88.7769 86° East 313 360 11,200 2,100 Climbing Chicago Center
04:11AM 42.1117 -88.6422 114° Southeast 388 447 13,400 2,220 Climbing Chicago Center
04:12AM 42.2146 -88.1585 71° East  Level FlightAware Approximate
04:12AM 42.0594 -88.5058 117° Southeast 406 467 15,800  Level Chicago Center
04:13AM 42.0061 -88.3589 116° Southeast 426 490 18,200 2,160 Climbing Chicago Center
04:14AM 41.9500 -88.2078 116° Southeast 444 511 20,200 1,800 Climbing Chicago Center
04:15AM 41.8917 -88.0458 116° Southeast 473 544 21,900 1,560 Climbing Chicago Center
04:16AM 41.8286 -87.8811 117° Southeast 490 564 23,400 1,440 Climbing Chicago Center
04:17AM 41.7639 -87.7094 117° Southeast 509 586 24,900 1,500 Climbing Chicago Center
04:18AM 41.6972 -87.5333 117° Southeast 524 603 26,500 1,560 Climbing Chicago Center
04:19AM 41.6289 -87.3517 117° Southeast 540 621 28,100 1,560 Climbing Chicago Center
04:20AM 41.5575 -87.1669 117° Southeast 555 639 29,700 1,680 Climbing Chicago Center
04:21AM 41.4858 -86.9814 117° Southeast 561 646 31,500 1,980 Climbing Chicago Center
04:22AM 41.4153 -86.7997 117° Southeast 555 639 33,700 1,980 Climbing Chicago Center
04:23AM 41.3369 -86.6053 118° Southeast 557 641 35,500 1,620 Climbing Chicago Center
04:24AM 41.2667 -86.4253 117° Southeast 553 636 37,000 1,380 Climbing Chicago Center
04:25AM 41.1992 -86.2483 117° Southeast 544 626 38,400 960 Climbing Chicago Center
04:26AM 41.1317 -86.0717 117° Southeast 542 624 39,000 300 Climbing Chicago Center
04:27AM 41.0639 -85.8947 117° Southeast 543 625 39,000  Level Chicago Center
04:28AM 40.9975 -85.7203 117° Southeast 537 618 39,000  Level Chicago Center
04:29AM 40.9286 -85.5453 117° Southeast 542 624 39,000  Level Chicago Center
04:30AM 40.8572 -85.3717 118° Southeast 542 624 39,000  Level Chicago Center
04:31AM 40.7847 -85.1953 118° Southeast 549 632 39,000  Level Chicago Center
04:32AM 40.7119 -85.0239 119° Southeast 544 626 39,000  Level Chicago Center
04:33AM 40.6308 -84.8311 119° Southeast 531 611 39,000  Level Chicago Center
04:34AM 40.5961 -84.6342 103° East 546 628 39,000  Level Chicago Center
04:35AM 40.5725 -84.4711 101° East 540 621 39,000  Level Chicago Center
04:36AM 40.5444 -84.2797 101° East 537 618 39,000  Level Chicago Center
04:37AM 40.5167 -84.0881 101° East 536 617 39,000  Level Chicago Center
04:38AM 40.4833 -83.8603 101° East 532 612 39,000  Level Chicago Center
04:39AM 40.4575 -83.6831 101° East 533 613 39,000  Level Indianapolis Center
04:40AM 40.4294 -83.4919 101° East 528 608 39,000  Level Indianapolis Center
04:41AM 40.4003 -83.3008 101° East 527 606 39,000  Level Indianapolis Center
04:42AM 40.3708 -83.1111 101° East 524 603 39,000  Level Indianapolis Center
04:43AM 40.3419 -82.9225 101° East 522 601 39,000  Level Indianapolis Center
04:44AM 40.3136 -82.7353 101° East 516 594 39,000  Level Indianapolis Center
04:45AM 40.2839 -82.5489 102° East 518 596 39,000  Level Indianapolis Center
04:46AM 40.2531 -82.3667 102° East 514 592 39,000  Level Indianapolis Center
04:47AM 40.2211 -82.1792 103° East 517 595 39,000  Level Indianapolis Center
04:48AM 40.1894 -81.9928 102° East 520 598 39,000  Level Indianapolis Center
04:49AM 40.1569 -81.8072 103° East 521 600 39,000  Level Indianapolis Center
04:50AM 40.1253 -81.6267 103° East 519 597 39,000  Level Indianapolis Center
04:51AM 40.0928 -81.4403 103° East 521 600 39,000  Level Indianapolis Center
04:52AM 40.0600 -81.2544 103° East 523 602 39,000  Level Indianapolis Center
04:53AM 40.0258 -81.0697 104° East 522 601 39,000  Level Indianapolis Center
04:54AM 39.9914 -80.8853 104° East 522 601 39,000  Level Indianapolis Center
04:55AM 39.9578 -80.7011 103° East 519 597 39,000  Level Indianapolis Center
04:56AM 39.9250 -80.5303 104° East 521 600 39,000  Level Indianapolis Center
04:57AM 39.8906 -80.3472 104° East 520 598 39,000  Level Indianapolis Center
04:58AM 39.8633 -80.1953 103° East 499 574 39,000  Level Washington Center
04:59AM 39.8303 -80.0175 104° East 499 574 39,000  Level Washington Center
05:00AM 39.7989 -79.8508 104° East 510 587 39,000  Level Washington Center
05:01AM 39.7561 -79.6375 105° East 510 587 39,000 -540 Level Washington Center
05:02AM 39.7133 -79.4194 104° East 510 587 37,800 -2,160 Descending Washington Center
05:03AM 39.6794 -79.2369 104° East 515 593 34,800 -3,420 Descending Washington Center
05:04AM 39.6411 -79.0517 105° East 515 593 31,000 -3,180 Descending Washington Center
05:05AM 39.5969 -78.8475 106° East 525 604 28,400 -2,340 Descending Washington Center
05:06AM 39.5639 -78.6764 104° East 512 589 26,300 -2,160 Descending Washington Center
05:07AM 39.5283 -78.5133 106° East 491 565 24,200 -2,040 Descending Washington Center
05:08AM 39.4964 -78.3589 105° East 465 535 22,200 -2,100 Descending Washington Center
05:09AM 39.4644 -78.2072 105° East 451 519 20,100 -2,220 Descending Washington Center
05:10AM 39.4322 -78.0581 106° East 439 505 17,800 -2,100 Descending Washington Center
05:11AM 39.3994 -77.9147 106° East 428 493 16,000 -1,680 Descending Washington Center
05:12AM 39.3894 -77.7856 96° East 413 475 14,500 -1,320 Descending Washington Center
05:13AM 39.4086 -77.6436 80° East 399 459 13,400 -1,200 Descending Washington Center
05:14AM 39.4278 -77.5019 80° East 394 453 12,200 -1,200 Descending Washington Center
05:15AM 39.4442 -77.3678 81° East 394 453 11,000 -600 Descending Washington Center
05:16AM 39.4586 -77.2367 82° East 376 433 11,000  Level Washington Center
05:17AM 39.4750 -77.1053 81° East 370 426 11,000 -420 Level Washington Center
05:18AM 39.4786 -76.9789 88° East 365 420 10,200 -1,020 Descending Washington Center
05:19AM 39.4833 -76.8333 88° East 316 364 8,900 -1,080 Descending Potomac TRACON
05:20AM 39.4667 -76.7333 102° East 318 366 8,000 -480 Descending Potomac TRACON
05:21AM 39.4333 -76.6333 113° Southeast 307 353 8,000  Level Potomac TRACON
05:22AM 39.3667 -76.5667 142° Southeast 295 339 8,000 -600 Level Potomac TRACON
05:23AM 39.3000 -76.5167 150° Southeast 281 323 6,800 -1,740 Descending Potomac TRACON
05:24AM 39.2167 -76.5000 171° South 281 323 4,600 -1,920 Descending Potomac TRACON
05:25AM 39.1500 -76.4833 169° South 272 313 3,200 -1,140 Descending Potomac TRACON
05:26AM 39.1000 -76.5167 207° Southwest 225 259 2,600 -900 Descending Potomac TRACON
05:27AM 39.0833 -76.5833 252° West 164 189 1,600 -600 Descending Potomac TRACON
05:28AM 39.1167 -76.6167 322° Northwest 132 152 1,500 -420 Descending Potomac TRACON
05:29AM 39.1333 -76.6333 322° Northwest 116 133 800 -720 Descending Potomac TRACON
05:31AM 39.1667 -76.6667 300° West  Level FlightAware Approximate
05:38AM 39.1754 -76.6683 300° West  Level Estimated